createdAt,value
2019-02-10T00:00:58.881Z,79.40
2019-02-10T00:03:26.045Z,78.50
2019-02-10T00:05:52.431Z,78.90
2019-02-10T00:08:18.593Z,78.50
2019-02-10T00:10:45.727Z,78.60
2019-02-10T00:13:21.143Z,78.70
2019-02-10T00:15:47.284Z,78.80
2019-02-10T00:18:13.428Z,78.70
2019-02-10T00:20:39.579Z,79.50
2019-02-10T00:23:05.984Z,78.50
2019-02-10T00:25:32.141Z,78.40
2019-02-10T00:27:58.290Z,78.40
2019-02-10T00:30:25.559Z,78.30
2019-02-10T00:32:51.712Z,78.20
2019-02-10T00:35:17.885Z,78.40
2019-02-10T00:37:44.120Z,79.10
2019-02-10T00:40:10.278Z,78.50
2019-02-10T00:42:36.419Z,78.50
2019-02-10T00:45:03.888Z,78.40
2019-02-10T00:47:30.040Z,78.60
2019-02-10T00:49:56.190Z,78.60
2019-02-10T00:52:22.344Z,78.70
2019-02-10T00:54:48.495Z,78.70
2019-02-10T00:57:14.647Z,78.70
2019-02-10T00:59:40.852Z,79.10
2019-02-10T01:02:07.167Z,79.20
2019-02-10T01:04:33.656Z,79.60
2019-02-10T01:06:59.812Z,80.00
2019-02-10T01:09:26.083Z,80.40
2019-02-10T01:11:52.603Z,80.60
2019-02-10T01:14:18.753Z,80.50
2019-02-10T01:16:44.910Z,80.70
2019-02-10T01:19:11.059Z,81.50
2019-02-10T01:21:37.221Z,80.70
2019-02-10T01:24:03.471Z,80.60
2019-02-10T01:26:29.610Z,80.60
2019-02-10T01:28:55.755Z,80.40
2019-02-10T01:31:21.911Z,80.50
2019-02-10T01:33:48.053Z,80.40
2019-02-10T01:36:14.215Z,80.50
2019-02-10T01:38:40.358Z,81.00
2019-02-10T01:41:06.515Z,81.10
2019-02-10T01:43:32.659Z,81.40
2019-02-10T01:45:58.804Z,82.60
2019-02-10T01:48:24.963Z,82.10
2019-02-10T01:50:51.120Z,82.40
2019-02-10T01:53:17.272Z,82.40
2019-02-10T01:55:43.430Z,82.10
2019-02-10T01:58:09.562Z,82.20
2019-02-10T02:00:36.243Z,82.50
2019-02-10T02:03:02.649Z,82.60
2019-02-10T02:05:28.982Z,83.20
2019-02-10T02:07:55.446Z,83.60
2019-02-10T02:10:21.598Z,84.10
2019-02-10T02:12:47.762Z,84.90
2019-02-10T02:15:14.420Z,85.70
2019-02-10T02:17:40.567Z,86.10
2019-02-10T02:20:08.324Z,86.90
2019-02-10T02:22:34.471Z,87.10
2019-02-10T02:25:00.631Z,87.10
2019-02-10T02:27:26.792Z,87.50
2019-02-10T02:29:52.955Z,87.50
2019-02-10T02:32:19.380Z,87.60
2019-02-10T02:34:45.534Z,87.50
2019-02-10T02:37:11.691Z,87.70
2019-02-10T02:39:37.931Z,87.60
2019-02-10T02:42:04.090Z,87.40
2019-02-10T02:44:30.239Z,87.10
2019-02-10T02:46:56.646Z,86.90
2019-02-10T02:49:22.791Z,86.40
2019-02-10T02:51:49.045Z,86.50
2019-02-10T02:54:15.192Z,86.60
2019-02-10T02:56:41.678Z,86.60
2019-02-10T02:59:07.831Z,86.70
2019-02-10T03:01:34.323Z,87.00
2019-02-10T03:04:01.916Z,87.60
2019-02-10T03:06:29.959Z,87.90
2019-02-10T03:08:56.103Z,88.10
2019-02-10T03:11:22.260Z,88.40
2019-02-10T03:13:48.411Z,89.20
2019-02-10T03:16:14.551Z,89.30
2019-02-10T03:18:40.708Z,89.20
2019-02-10T03:21:06.846Z,90.00
2019-02-10T03:23:34.001Z,90.10
2019-02-10T03:26:00.153Z,90.30
2019-02-10T03:28:26.306Z,90.80
2019-02-10T03:30:52.449Z,91.20
2019-02-10T03:33:18.662Z,91.50
2019-02-10T03:35:45.106Z,91.50
2019-02-10T03:38:11.345Z,91.60
2019-02-10T03:40:37.491Z,91.80
2019-02-10T03:43:03.895Z,91.70
2019-02-10T03:45:30.029Z,91.90
2019-02-10T03:47:56.191Z,92.50
2019-02-10T03:50:22.582Z,92.30
2019-02-10T03:52:48.779Z,92.30
2019-02-10T03:55:14.898Z,92.40
2019-02-10T03:57:41.065Z,92.30
2019-02-10T04:00:10.826Z,92.90
2019-02-10T04:02:37.039Z,92.50
2019-02-10T04:05:03.989Z,92.50
2019-02-10T04:07:35.891Z,92.50
2019-02-10T04:09:58.199Z,92.50
2019-02-10T04:12:24.675Z,92.30
2019-02-10T04:14:50.837Z,92.40
2019-02-10T04:17:16.991Z,92.40
2019-02-10T04:19:43.143Z,92.40
2019-02-10T04:22:09.290Z,92.50
2019-02-10T04:24:35.451Z,92.60
2019-02-10T04:27:01.590Z,92.70
2019-02-10T04:29:27.787Z,92.60
2019-02-10T04:31:54.149Z,92.60
2019-02-10T04:34:20.316Z,92.60
2019-02-10T04:36:46.479Z,92.60
2019-02-10T04:39:12.641Z,92.70
2019-02-10T04:41:38.792Z,93.00
2019-02-10T04:44:04.930Z,93.00
2019-02-10T04:46:31.074Z,93.00
2019-02-10T04:48:57.304Z,93.20
2019-02-10T04:51:23.518Z,93.20
2019-02-10T04:53:49.661Z,93.30
2019-02-10T04:56:16.019Z,93.50
2019-02-10T04:58:42.174Z,93.50
2019-02-10T05:01:08.336Z,93.50
2019-02-10T05:03:34.498Z,93.40
2019-02-10T05:06:00.655Z,93.40
2019-02-10T05:08:26.806Z,93.60
2019-02-10T05:10:52.959Z,93.60
2019-02-10T05:13:19.111Z,93.50
2019-02-10T05:15:45.262Z,93.60
2019-02-10T05:18:12.510Z,93.60
2019-02-10T05:20:38.983Z,93.80
2019-02-10T05:23:05.136Z,94.10
2019-02-10T05:25:31.293Z,93.80
2019-02-10T05:27:57.438Z,93.80
2019-02-10T05:30:23.603Z,93.80
2019-02-10T05:32:49.741Z,93.90
2019-02-10T05:35:15.912Z,94.00
2019-02-10T05:37:42.050Z,94.10
2019-02-10T05:40:08.318Z,94.10
2019-02-10T05:42:34.461Z,94.00
2019-02-10T05:45:00.612Z,94.00
2019-02-10T05:47:26.757Z,93.80
2019-02-10T05:49:52.917Z,93.90
2019-02-10T05:52:19.055Z,94.00
2019-02-10T05:54:45.215Z,94.00
2019-02-10T05:57:11.633Z,93.90
2019-02-10T05:59:37.805Z,93.80
2019-02-10T06:02:07.268Z,93.90
2019-02-10T06:04:39.326Z,94.30
2019-02-10T06:07:09.086Z,93.90
2019-02-10T06:09:35.227Z,93.80
2019-02-10T06:12:01.387Z,93.90
2019-02-10T06:14:27.540Z,93.90
2019-02-10T06:16:53.689Z,93.80
2019-02-10T06:19:19.830Z,94.00
2019-02-10T06:21:45.992Z,94.20
2019-02-10T06:24:12.495Z,94.00
2019-02-10T06:26:38.654Z,94.10
2019-02-10T06:29:05.151Z,94.20
2019-02-10T06:31:31.313Z,94.20
2019-02-10T06:33:57.492Z,94.20
2019-02-10T06:36:23.635Z,94.10
2019-02-10T06:38:49.779Z,94.20
2019-02-10T06:41:15.935Z,94.30
2019-02-10T06:43:42.081Z,94.70
2019-02-10T06:46:08.470Z,94.40
2019-02-10T06:48:34.610Z,94.60
2019-02-10T06:51:00.778Z,94.50
2019-02-10T06:53:27.160Z,94.60
2019-02-10T06:55:53.313Z,94.60
2019-02-10T06:58:19.462Z,94.60
2019-02-10T07:00:53.405Z,94.60
2019-02-10T07:03:30.321Z,94.90
2019-02-10T07:05:56.471Z,94.80
2019-02-10T07:08:30.162Z,94.40
2019-02-10T07:10:50.675Z,94.50
2019-02-10T07:13:32.094Z,94.30
2019-02-10T07:16:33.742Z,94.40
2019-02-10T07:19:37.855Z,94.40
2019-02-10T07:22:27.421Z,94.50
2019-02-10T07:25:09.526Z,94.50
2019-02-10T07:27:35.695Z,94.40
2019-02-10T07:30:05.636Z,94.30
2019-02-10T07:32:56.611Z,94.30
2019-02-10T07:35:55.762Z,94.30
2019-02-10T07:38:38.679Z,94.20
2019-02-10T07:41:28.037Z,94.20
2019-02-10T07:44:00.924Z,94.30
2019-02-10T07:46:53.492Z,94.60
2019-02-10T07:49:45.835Z,94.10
2019-02-10T07:52:27.640Z,94.00
2019-02-10T07:55:14.450Z,93.80
2019-02-10T07:58:13.632Z,93.60
2019-02-10T08:01:05.761Z,93.60
2019-02-10T08:03:47.847Z,93.60
2019-02-10T08:06:24.007Z,93.50
2019-02-10T08:09:06.029Z,93.40
2019-02-10T08:11:36.067Z,93.30
2019-02-10T08:14:14.791Z,93.20
2019-02-10T08:16:48.097Z,93.20
2019-02-10T08:19:33.464Z,92.80
2019-02-10T08:22:12.043Z,92.40
2019-02-10T08:24:53.446Z,92.30
2019-02-10T08:27:26.127Z,92.00
2019-02-10T08:30:25.406Z,92.10
2019-02-10T08:33:19.750Z,92.10
2019-02-10T08:36:25.197Z,91.80
2019-02-10T08:39:04.506Z,91.60
2019-02-10T08:41:53.883Z,91.30
2019-02-10T08:44:32.391Z,91.10
2019-02-10T08:47:08.250Z,91.20
2019-02-10T08:49:50.263Z,91.10
2019-02-10T08:52:25.994Z,90.90
2019-02-10T08:54:53.244Z,91.00
2019-02-10T08:57:19.398Z,91.20
2019-02-10T08:59:45.683Z,91.10
2019-02-10T09:02:11.933Z,90.90
2019-02-10T09:04:38.088Z,90.80
2019-02-10T09:07:04.259Z,90.90
2019-02-10T09:09:30.419Z,90.60
2019-02-10T09:11:56.587Z,90.60
2019-02-10T09:14:22.786Z,90.40
2019-02-10T09:16:48.946Z,90.30
2019-02-10T09:19:15.088Z,90.40
2019-02-10T09:21:41.234Z,90.10
2019-02-10T09:24:07.392Z,89.90
2019-02-10T09:26:33.818Z,89.70
2019-02-10T09:28:59.968Z,89.70
2019-02-10T09:31:26.179Z,89.70
2019-02-10T09:33:52.883Z,89.90
2019-02-10T09:36:20.353Z,89.80
2019-02-10T09:38:46.727Z,89.90
2019-02-10T09:41:12.889Z,90.10
2019-02-10T09:43:39.073Z,90.30
2019-02-10T09:46:05.296Z,90.60
2019-02-10T09:48:31.447Z,90.70
2019-02-10T09:50:57.586Z,90.80
2019-02-10T09:53:23.769Z,91.00
2019-02-10T09:55:49.935Z,91.10
2019-02-10T09:58:16.088Z,91.20
2019-02-10T10:00:42.250Z,91.20
2019-02-10T10:03:08.395Z,91.30
2019-02-10T10:05:34.527Z,91.40
2019-02-10T10:08:00.679Z,91.20
2019-02-10T10:10:26.823Z,91.00
2019-02-10T10:12:52.970Z,91.10
2019-02-10T10:15:19.111Z,91.30
2019-02-10T10:17:45.274Z,91.30
2019-02-10T10:20:13.918Z,91.40
2019-02-10T10:22:40.094Z,91.80
2019-02-10T10:25:07.537Z,91.40
2019-02-10T10:27:33.697Z,91.50
2019-02-10T10:29:59.851Z,91.50
2019-02-10T10:32:26.274Z,91.40
2019-02-10T10:34:52.687Z,91.30
2019-02-10T10:37:18.866Z,91.50
2019-02-10T10:39:45.019Z,91.00
2019-02-10T10:42:11.415Z,90.90
2019-02-10T10:44:37.586Z,90.80
2019-02-10T10:47:03.963Z,90.60
2019-02-10T10:49:30.135Z,90.60
2019-02-10T10:51:56.275Z,90.20
2019-02-10T10:54:22.432Z,90.00
2019-02-10T10:56:48.588Z,89.90
2019-02-10T10:59:14.786Z,89.60
2019-02-10T11:01:40.942Z,89.70
2019-02-10T11:04:07.208Z,89.90
2019-02-10T11:06:34.016Z,90.10
2019-02-10T11:09:00.313Z,90.10
2019-02-10T11:11:26.442Z,90.20
2019-02-10T11:13:53.600Z,90.30
2019-02-10T11:16:19.758Z,90.50
2019-02-10T11:18:45.922Z,90.50
2019-02-10T11:21:13.624Z,90.40
2019-02-10T11:23:40.722Z,90.50
2019-02-10T11:26:06.892Z,90.40
2019-02-10T11:28:33.272Z,90.50
2019-02-10T11:31:00.472Z,90.70
2019-02-10T11:33:26.856Z,90.90
2019-02-10T11:35:53.021Z,90.90
2019-02-10T11:38:19.165Z,90.90
2019-02-10T11:40:45.312Z,90.90
2019-02-10T11:43:11.694Z,91.10
2019-02-10T11:45:37.868Z,91.10
2019-02-10T11:48:04.051Z,90.70
2019-02-10T11:50:30.207Z,91.00
2019-02-10T11:52:56.367Z,90.70
2019-02-10T11:55:22.518Z,90.30
2019-02-10T11:57:48.677Z,89.40
2019-02-10T12:00:15.844Z,88.10
2019-02-10T12:02:41.982Z,87.60
2019-02-10T12:05:09.669Z,87.30
2019-02-10T12:07:35.807Z,87.30
2019-02-10T12:10:03.088Z,88.30
2019-02-10T12:12:29.469Z,88.30
2019-02-10T12:14:55.624Z,88.20
2019-02-10T12:17:21.771Z,88.00
2019-02-10T12:19:47.957Z,88.00
2019-02-10T12:22:14.100Z,87.70
2019-02-10T12:24:40.258Z,87.50
2019-02-10T12:27:06.415Z,87.30
2019-02-10T12:29:32.554Z,87.80
2019-02-10T12:31:58.719Z,88.30
2019-02-10T12:34:25.207Z,88.80
2019-02-10T12:36:51.366Z,89.00
2019-02-10T12:39:17.507Z,89.00
2019-02-10T12:41:43.658Z,88.10
2019-02-10T12:44:09.807Z,88.20
2019-02-10T12:46:36.179Z,88.30
2019-02-10T12:49:02.329Z,88.70
2019-02-10T12:51:28.501Z,89.10
2019-02-10T12:53:54.647Z,89.60
2019-02-10T12:56:20.807Z,89.70
2019-02-10T12:58:46.978Z,90.00
2019-02-10T13:01:13.137Z,90.00
2019-02-10T13:03:39.293Z,90.00
2019-02-10T13:06:05.451Z,89.90
2019-02-10T13:08:31.868Z,89.70
2019-02-10T13:10:58.029Z,89.90
2019-02-10T13:13:24.221Z,89.60
2019-02-10T13:15:50.404Z,89.40
2019-02-10T13:18:16.788Z,89.50
2019-02-10T13:20:42.947Z,89.10
2019-02-10T13:23:09.121Z,89.30
2019-02-10T13:25:35.271Z,89.30
2019-02-10T13:28:01.433Z,89.90
2019-02-10T13:30:27.896Z,90.00
2019-02-10T13:32:54.155Z,90.00
2019-02-10T13:35:20.300Z,90.00
2019-02-10T13:37:46.460Z,89.70
2019-02-10T13:40:16.685Z,89.60
2019-02-10T13:42:43.182Z,89.60
2019-02-10T13:45:10.026Z,89.20
2019-02-10T13:47:36.187Z,89.50
2019-02-10T13:50:05.424Z,89.30
2019-02-10T13:52:31.592Z,89.40
2019-02-10T13:54:57.731Z,89.10
2019-02-10T13:57:23.888Z,88.80
2019-02-10T13:59:50.053Z,89.20
2019-02-10T14:02:16.199Z,88.90
2019-02-10T14:04:42.566Z,88.90
2019-02-10T14:07:08.730Z,88.80
2019-02-10T14:09:35.124Z,89.20
2019-02-10T14:12:01.285Z,89.20
2019-02-10T14:14:27.427Z,89.60
2019-02-10T14:16:53.585Z,89.40
2019-02-10T14:19:19.770Z,89.50
2019-02-10T14:21:45.924Z,89.70
2019-02-10T14:24:12.078Z,90.00
2019-02-10T14:26:38.217Z,90.00
2019-02-10T14:29:04.977Z,90.00
2019-02-10T14:31:31.367Z,90.10
2019-02-10T14:33:57.511Z,90.40
2019-02-10T14:36:23.903Z,90.50
2019-02-10T14:38:50.058Z,90.80
2019-02-10T14:41:16.196Z,91.10
2019-02-10T14:43:42.597Z,91.20
2019-02-10T14:46:08.789Z,91.20
2019-02-10T14:48:35.001Z,91.00
2019-02-10T14:51:01.147Z,90.90
2019-02-10T14:53:27.575Z,90.60
2019-02-10T14:55:53.738Z,90.50
2019-02-10T14:58:20.120Z,90.30
2019-02-10T15:00:46.322Z,90.10
2019-02-10T15:03:12.526Z,89.90
2019-02-10T15:05:38.726Z,89.30
2019-02-10T15:08:04.884Z,89.50
2019-02-10T15:10:31.017Z,89.60
2019-02-10T15:12:57.441Z,89.40
2019-02-10T15:15:23.590Z,88.40
2019-02-10T15:17:49.751Z,88.20
2019-02-10T15:20:15.894Z,88.10
2019-02-10T15:22:42.044Z,87.70
2019-02-10T15:25:10.494Z,87.40
2019-02-10T15:27:36.644Z,87.60
2019-02-10T15:30:07.182Z,87.40
2019-02-10T15:32:33.430Z,87.70
2019-02-10T15:34:59.596Z,88.00
2019-02-10T15:37:25.767Z,87.90
2019-02-10T15:39:51.995Z,87.70
2019-02-10T15:42:18.130Z,88.00
2019-02-10T15:44:45.686Z,89.20
2019-02-10T15:47:11.942Z,88.10
2019-02-10T15:49:38.324Z,88.70
2019-02-10T15:52:04.471Z,87.60
2019-02-10T15:54:30.770Z,86.70
2019-02-10T15:56:56.895Z,86.40
2019-02-10T15:59:23.273Z,86.20
2019-02-10T16:01:49.437Z,85.60
2019-02-10T16:04:15.824Z,84.70
2019-02-10T16:06:41.970Z,84.60
2019-02-10T16:09:08.226Z,84.50
2019-02-10T16:11:34.876Z,84.60
2019-02-10T16:14:01.054Z,84.60
2019-02-10T16:16:27.193Z,84.80
2019-02-10T16:18:53.338Z,85.00
2019-02-10T16:21:19.494Z,85.30
2019-02-10T16:23:45.647Z,86.20
2019-02-10T16:26:11.793Z,86.30
2019-02-10T16:28:37.942Z,86.40
2019-02-10T16:31:04.094Z,87.00
2019-02-10T16:33:30.258Z,87.50
2019-02-10T16:35:56.384Z,88.40
2019-02-10T16:38:22.751Z,89.30
2019-02-10T16:40:48.951Z,89.90
2019-02-10T16:43:15.104Z,90.10
2019-02-10T16:45:41.310Z,90.20
2019-02-10T16:48:07.725Z,90.40
2019-02-10T16:50:33.870Z,90.40
2019-02-10T16:53:00.012Z,90.20
2019-02-10T16:55:26.166Z,90.20
2019-02-10T16:57:52.307Z,90.30
2019-02-10T17:00:18.462Z,90.40
2019-02-10T17:02:44.851Z,90.60
2019-02-10T17:05:11.547Z,90.60
2019-02-10T17:07:37.719Z,90.30
2019-02-10T17:10:07.178Z,90.40
2019-02-10T17:12:33.339Z,90.70
2019-02-10T17:15:00.739Z,90.80
2019-02-10T17:17:26.878Z,91.00
2019-02-10T17:19:53.242Z,91.30
2019-02-10T17:22:19.402Z,91.30
2019-02-10T17:24:45.576Z,91.20
2019-02-10T17:27:11.813Z,91.30
2019-02-10T17:29:38.200Z,91.50
2019-02-10T17:32:04.630Z,91.50
2019-02-10T17:34:30.788Z,91.40
2019-02-10T17:36:57.184Z,91.10
2019-02-10T17:39:23.329Z,90.90
2019-02-10T17:41:49.487Z,91.10
2019-02-10T17:44:15.644Z,90.90
2019-02-10T17:46:41.800Z,90.90
2019-02-10T17:49:07.942Z,91.40
2019-02-10T17:51:34.384Z,91.50
2019-02-10T17:54:00.791Z,91.90
2019-02-10T17:56:26.958Z,92.40
2019-02-10T17:58:53.136Z,92.60
2019-02-10T18:01:19.306Z,92.80
2019-02-10T18:03:45.468Z,92.70
2019-02-10T18:06:11.626Z,92.70
2019-02-10T18:08:37.782Z,93.00
2019-02-10T18:11:04.200Z,92.70
2019-02-10T18:13:30.689Z,92.80
2019-02-10T18:15:58.730Z,92.40
2019-02-10T18:18:32.385Z,92.40
2019-02-10T18:21:00.438Z,92.40
2019-02-10T18:23:37.826Z,92.50
2019-02-10T18:26:22.732Z,92.50
2019-02-10T18:29:05.941Z,92.60
2019-02-10T18:31:50.950Z,92.50
2019-02-10T18:34:24.830Z,92.80
2019-02-10T18:36:58.928Z,92.70
2019-02-10T18:39:36.542Z,92.90
2019-02-10T18:42:20.656Z,92.40
2019-02-10T18:44:59.466Z,92.50
2019-02-10T18:47:44.453Z,92.20
2019-02-10T18:50:15.620Z,92.10
2019-02-10T18:52:55.479Z,92.00
2019-02-10T18:55:23.519Z,92.00
2019-02-10T18:57:54.690Z,92.30
2019-02-10T19:00:35.672Z,92.50
2019-02-10T19:03:03.720Z,92.50
2019-02-10T19:05:34.313Z,92.70
2019-02-10T19:08:08.366Z,92.50
2019-02-10T19:10:55.423Z,92.60
2019-02-10T19:13:26.382Z,92.70
2019-02-10T19:16:11.288Z,93.00
2019-02-10T19:18:48.842Z,93.20
2019-02-10T19:21:34.103Z,93.20
2019-02-10T19:24:05.003Z,93.40
2019-02-10T19:26:51.046Z,93.40
2019-02-10T19:29:25.636Z,93.00
2019-02-10T19:32:06.290Z,93.00
2019-02-10T19:34:37.926Z,92.90
2019-02-10T19:37:22.626Z,93.30
2019-02-10T19:39:59.707Z,93.10
2019-02-10T19:42:44.282Z,93.00
2019-02-10T19:45:12.458Z,93.10
2019-02-10T19:47:44.492Z,92.90
2019-02-10T19:50:21.435Z,93.10
2019-02-10T19:52:49.776Z,93.10
2019-02-10T19:55:17.910Z,93.20
2019-02-10T19:57:49.058Z,93.00
2019-02-10T20:00:17.334Z,93.10
2019-02-10T20:02:47.886Z,93.20
2019-02-10T20:05:30.894Z,93.10
2019-02-10T20:08:15.634Z,93.30
2019-02-10T20:10:52.414Z,93.00
2019-02-10T20:13:20.520Z,93.10
2019-02-10T20:16:06.514Z,92.90
2019-02-10T20:18:34.563Z,92.80
2019-02-10T20:21:11.338Z,92.90
2019-02-10T20:23:55.613Z,92.90
2019-02-10T20:26:26.560Z,93.10
2019-02-10T20:28:54.612Z,93.40
2019-02-10T20:31:22.670Z,93.20
2019-02-10T20:33:59.627Z,93.30
2019-02-10T20:36:30.739Z,93.50
2019-02-10T20:39:10.426Z,93.40
2019-02-10T20:41:57.055Z,93.30
2019-02-10T20:44:37.172Z,93.30
2019-02-10T20:47:05.451Z,93.60
2019-02-10T20:49:49.678Z,93.50
2019-02-10T20:52:23.515Z,93.50
2019-02-10T20:54:54.082Z,93.70
2019-02-10T20:57:25.075Z,93.80
2019-02-10T21:00:02.347Z,93.20
2019-02-10T21:02:31.994Z,93.30
2019-02-10T21:05:02.795Z,93.30
2019-02-10T21:07:37.199Z,93.50
2019-02-10T21:10:07.846Z,93.70
2019-02-10T21:12:38.666Z,93.80
2019-02-10T21:15:26.786Z,93.60
2019-02-10T21:17:55.063Z,93.70
2019-02-10T21:20:23.150Z,93.50
2019-02-10T21:22:54.039Z,93.40
2019-02-10T21:25:37.041Z,93.60
2019-02-10T21:28:13.987Z,93.80
2019-02-10T21:30:58.263Z,93.80
2019-02-10T21:33:42.954Z,93.80
2019-02-10T21:36:19.697Z,93.80
2019-02-10T21:39:00.155Z,93.90
2019-02-10T21:41:30.846Z,94.10
2019-02-10T21:43:58.889Z,94.10
2019-02-10T21:46:27.181Z,94.00
2019-02-10T21:48:55.151Z,94.00
2019-02-10T21:51:21.537Z,93.90
2019-02-10T21:53:47.676Z,94.20
2019-02-10T21:56:13.846Z,94.10
2019-02-10T21:58:41.321Z,94.20
2019-02-10T22:01:07.562Z,94.10
2019-02-10T22:03:33.956Z,93.90
2019-02-10T22:06:00.096Z,94.00
2019-02-10T22:08:26.505Z,93.80
2019-02-10T22:10:52.650Z,93.80
2019-02-10T22:13:18.794Z,94.10
2019-02-10T22:15:45.939Z,94.00
2019-02-10T22:18:12.350Z,94.10
2019-02-10T22:20:38.502Z,94.10
2019-02-10T22:23:04.670Z,94.10
2019-02-10T22:25:30.832Z,94.10
2019-02-10T22:27:57.255Z,94.10
2019-02-10T22:30:23.404Z,94.30
2019-02-10T22:32:49.555Z,94.70
2019-02-10T22:35:16.930Z,94.30
2019-02-10T22:37:43.098Z,94.20
2019-02-10T22:40:10.757Z,94.40
2019-02-10T22:42:45.048Z,94.40
2019-02-10T22:45:10.326Z,94.40
2019-02-10T22:47:36.815Z,94.40
2019-02-10T22:50:05.986Z,94.30
2019-02-10T22:52:32.134Z,94.50
2019-02-10T22:54:59.394Z,94.20
2019-02-10T22:57:25.554Z,94.10
2019-02-10T22:59:51.710Z,94.20
2019-02-10T23:02:17.866Z,94.00
2019-02-10T23:04:44.014Z,94.10
2019-02-10T23:07:10.262Z,94.00
2019-02-10T23:09:36.426Z,93.70
2019-02-10T23:12:02.789Z,93.90
2019-02-10T23:14:28.934Z,94.20
2019-02-10T23:16:55.079Z,94.30
2019-02-10T23:19:21.274Z,94.30
2019-02-10T23:21:47.429Z,94.60
2019-02-10T23:24:13.577Z,94.60
2019-02-10T23:26:39.736Z,94.50
2019-02-10T23:29:05.889Z,94.40
2019-02-10T23:31:32.043Z,94.30
2019-02-10T23:33:59.470Z,94.00
2019-02-10T23:36:25.627Z,94.10
2019-02-10T23:38:51.763Z,94.30
2019-02-10T23:41:17.922Z,94.20
2019-02-10T23:43:44.384Z,94.10
2019-02-10T23:46:10.603Z,94.70
2019-02-10T23:48:36.786Z,94.30
2019-02-10T23:51:02.941Z,94.20
2019-02-10T23:53:29.111Z,94.20
2019-02-10T23:55:55.291Z,94.30
2019-02-10T23:58:21.743Z,94.40
